Time;durP1;ratioP1;P1;durP2;ratioP2;P2;SDS_P1;SDS_P2;PMS_P1;PMS_P2;Temp;Humidity;BMP_temperature;BMP_pressure;BME280_temperature;BME280_humidity;BME280_pressure;Samples;Min_cycle;Max_cycle;Signal;HPM_P1;HPM_P2
2023/07/10 00:00:24;;;;;;;11.70;7.90;;;;;;;15.46;83.96;99463.61;273158;1266;22218;-76
2023/07/10 00:07:58;;;;;;;10.50;8.40;;;;;;;15.36;84.55;99456.81;273359;1266;22399;-77
2023/07/10 00:13:50;;;;;;;9.90;7.30;;;;;;;15.27;85.26;99454.69;273295;1258;22406;-79
2023/07/10 00:20:56;;;;;;;9.00;8.00;;;;;;;15.18;85.71;99453.05;273536;1266;22316;-77
2023/07/10 00:26:57;;;;;;;10.20;6.70;;;;;;;15.12;86.45;99451.54;273597;1266;22466;-77
2023/07/10 00:33:14;;;;;;;9.10;7.40;;;;;;;15.10;86.92;99456.83;273596;1266;22476;-76
2023/07/10 00:39:37;;;;;;;9.50;7.70;;;;;;;15.00;87.20;99463.04;273623;1266;22220;-77
2023/07/10 00:46:29;;;;;;;10.20;8.20;;;;;;;14.90;87.27;99459.64;273632;1259;22516;-79
2023/07/10 00:53:18;;;;;;;11.80;8.70;;;;;;;14.84;87.86;99457.19;273605;1266;22292;-74
2023/07/10 00:59:37;;;;;;;12.30;7.70;;;;;;;14.74;88.00;99453.48;273840;1266;22221;-76
2023/07/10 01:05:40;;;;;;;11.30;7.40;;;;;;;14.70;88.57;99458.36;273875;1266;22402;-76
2023/07/10 01:11:54;;;;;;;;;;;;;;;;;;;;;
2023/07/10 01:18:41;;;;;;;12.10;7.90;;;;;;;14.56;89.04;99443.77;273700;1266;22423;-76
2023/07/10 01:24:42;;;;;;;11.20;8.10;;;;;;;14.36;89.10;99437.72;273743;1266;23286;-77
2023/07/10 01:31:11;;;;;;;10.70;8.00;;;;;;;14.27;89.70;99436.60;273580;1267;23198;-77
2023/07/10 01:37:48;;;;;;;;;;;;;;;;;;;;;
2023/07/10 01:44:30;;;;;;;9.10;6.90;;;;;;;14.20;90.81;99431.19;273536;1251;23054;-77
2023/07/10 01:50:38;;;;;;;11.60;8.10;;;;;;;14.26;91.07;99426.98;273839;1266;22352;-77
2023/07/10 01:56:42;;;;;;;8.90;8.00;;;;;;;14.19;91.25;99429.39;273858;1266;22814;-78
2023/07/10 02:03:10;;;;;;;11.50;7.50;;;;;;;14.10;91.40;99430.30;273467;1261;22430;-78
2023/07/10 02:09:44;;;;;;;10.80;8.60;;;;;;;13.95;91.66;99423.39;273380;1261;22470;-78
2023/07/10 02:15:46;;;;;;;11.40;8.00;;;;;;;13.87;91.72;99415.64;273113;1266;22435;-77
2023/07/10 02:21:48;;;;;;;11.10;8.40;;;;;;;13.84;92.10;99410.20;271922;1266;23615;-77
2023/07/10 02:27:51;;;;;;;9.90;8.10;;;;;;;13.81;92.74;99411.61;273122;1266;22408;-76
2023/07/10 02:34:00;;;;;;;9.90;7.90;;;;;;;13.74;92.77;99407.49;273497;1266;22787;-77
2023/07/10 02:40:01;;;;;;;12.60;7.80;;;;;;;13.65;92.87;99408.77;273561;1258;23512;-77
2023/07/10 02:46:02;;;;;;;8.60;7.10;;;;;;;13.63;93.32;99411.67;273002;1264;22408;-78
2023/07/10 02:52:04;;;;;;;11.00;8.50;;;;;;;13.62;93.47;99409.39;273028;1266;23833;-78
2023/07/10 02:58:06;;;;;;;12.60;8.60;;;;;;;13.57;93.78;99406.84;273151;1266;22341;-77
2023/07/10 03:04:07;;;;;;;11.70;7.90;;;;;;;13.53;94.00;99407.23;273472;1266;22233;-78
2023/07/10 03:10:08;;;;;;;12.60;8.00;;;;;;;13.44;94.36;99410.71;272995;1267;120735;-78
2023/07/10 03:16:12;;;;;;;9.80;8.20;;;;;;;13.45;94.86;99412.74;273072;1266;23569;-78
2023/07/10 03:22:16;;;;;;;9.90;8.30;;;;;;;13.57;95.35;99415.88;273303;1266;22431;-79
2023/07/10 03:28:18;;;;;;;10.00;8.10;;;;;;;13.63;95.47;99419.70;273652;1257;22432;-77
2023/07/10 03:34:19;;;;;;;9.50;8.30;;;;;;;13.64;95.34;99418.21;273452;1253;22393;-77
2023/07/10 03:40:20;;;;;;;9.90;7.70;;;;;;;13.63;95.64;99419.70;273475;1266;22215;-77
2023/07/10 03:46:21;;;;;;;10.40;7.90;;;;;;;13.61;95.82;99423.06;273269;1260;22205;-77
2023/07/10 03:52:22;;;;;;;8.70;7.80;;;;;;;13.62;96.33;99425.42;273535;1266;22396;-77
2023/07/10 03:58:31;;;;;;;10.70;8.90;;;;;;;13.67;97.03;99423.57;273268;1259;22423;-77
2023/07/10 04:04:35;;;;;;;10.30;8.90;;;;;;;13.78;97.47;99425.52;273558;1266;22566;-79
2023/07/10 04:10:36;;;;;;;10.10;9.00;;;;;;;13.93;97.88;99416.86;273587;1257;22400;-77
2023/07/10 04:16:37;;;;;;;11.60;8.40;;;;;;;14.04;97.90;99407.70;273429;1266;22503;-77
2023/07/10 04:22:45;;;;;;;10.50;7.80;;;;;;;14.19;98.23;99402.49;273520;1266;22451;-78
2023/07/10 04:28:48;;;;;;;11.50;7.60;;;;;;;14.38;98.24;99407.13;273853;1267;23842;-77
2023/07/10 04:34:58;;;;;;;8.50;7.30;;;;;;;14.54;97.98;99408.34;273704;1256;22178;-77
2023/07/10 04:41:05;;;;;;;14.70;8.10;;;;;;;14.66;97.88;99403.48;273400;1264;22274;-80
2023/07/10 04:47:06;;;;;;;10.30;7.50;;;;;;;14.75;98.17;99401.20;273313;1266;23662;-77
2023/07/10 04:53:07;;;;;;;9.10;7.70;;;;;;;14.89;98.33;99399.55;273770;1256;22288;-80
2023/07/10 04:59:08;;;;;;;11.00;7.10;;;;;;;15.03;98.50;99402.71;273434;1270;22470;-77
2023/07/10 05:05:13;;;;;;;9.80;7.50;;;;;;;15.20;98.67;99397.41;271114;1266;24848;-78
2023/07/10 05:11:18;;;;;;;11.40;8.10;;;;;;;15.39;98.72;99403.48;273412;1257;23316;-80
2023/07/10 05:17:20;;;;;;;12.30;8.70;;;;;;;15.59;98.51;99408.64;273717;1266;22234;-76
2023/07/10 05:23:21;;;;;;;13.80;10.20;;;;;;;15.81;98.31;99413.23;273057;1266;23221;-76
2023/07/10 05:29:22;;;;;;;10.90;8.70;;;;;;;16.06;98.11;99419.67;272328;1266;22390;-77
2023/07/10 05:35:23;;;;;;;12.00;10.10;;;;;;;16.31;97.44;99419.10;273205;1266;22355;-77
2023/07/10 05:41:24;;;;;;;16.80;12.70;;;;;;;16.53;96.85;99413.48;273721;1266;22195;-77
2023/07/10 05:47:25;;;;;;;14.00;11.40;;;;;;;16.76;96.57;99418.30;272040;1266;22534;-77
2023/07/10 05:53:27;;;;;;;13.60;11.30;;;;;;;17.00;96.09;99422.77;273359;1266;23722;-78
2023/07/10 05:59:28;;;;;;;14.40;10.30;;;;;;;17.19;95.13;99427.13;272135;1253;24680;-78
2023/07/10 06:05:28;;;;;;;14.30;9.90;;;;;;;17.42;94.63;99423.85;272518;1266;22406;-78
2023/07/10 06:11:30;;;;;;;14.60;10.80;;;;;;;17.65;94.15;99425.14;273474;1266;23231;-77
2023/07/10 06:17:31;;;;;;;14.40;10.20;;;;;;;17.91;93.37;99429.52;273905;1266;22550;-79
2023/07/10 06:23:32;;;;;;;13.40;9.70;;;;;;;18.19;92.57;99420.54;272637;1254;23528;-77
2023/07/10 06:29:35;;;;;;;17.60;9.50;;;;;;;18.47;91.00;99414.10;269438;1266;22350;-78
2023/07/10 06:35:36;;;;;;;14.70;8.50;;;;;;;18.72;89.93;99410.98;269419;1266;23171;-77
2023/07/10 06:41:37;;;;;;;12.80;8.60;;;;;;;19.01;89.23;99410.44;271969;1266;22180;-79
2023/07/10 06:47:51;;;;;;;16.70;9.40;;;;;;;19.27;89.05;99410.95;270381;1266;25399;-77
2023/07/10 06:53:53;;;;;;;14.30;8.90;;;;;;;19.59;88.09;99407.60;269802;1266;22597;-78
2023/07/10 06:59:54;;;;;;;10.10;7.60;;;;;;;20.06;87.88;99400.03;270374;1264;22534;-77
2023/07/10 07:05:55;;;;;;;16.30;8.10;;;;;;;20.62;86.17;99401.27;270539;1266;22539;-77
2023/07/10 07:11:58;;;;;;;17.60;9.00;;;;;;;21.25;84.43;99396.80;269399;1263;22525;-77
2023/07/10 07:18:14;;;;;;;10.20;7.00;;;;;;;21.89;83.01;99391.20;272993;1257;22388;-77
2023/07/10 07:24:18;;;;;;;12.90;6.80;;;;;;;22.67;82.21;99392.80;273927;1254;22206;-78
2023/07/10 07:30:19;;;;;;;12.20;6.80;;;;;;;23.47;80.26;99378.81;273474;1260;22410;-78
2023/07/10 07:36:21;;;;;;;10.60;6.20;;;;;;;24.03;77.78;99378.17;273075;1267;22238;-78
2023/07/10 07:42:29;;;;;;;8.60;6.00;;;;;;;24.38;76.76;99375.09;273740;1266;22676;-80
2023/07/10 07:48:40;;;;;;;7.30;5.90;;;;;;;24.77;75.74;99377.39;273630;1266;22353;-78
2023/07/10 07:54:59;;;;;;;9.40;5.80;;;;;;;25.26;73.43;99372.72;273842;1266;22247;-78
2023/07/10 08:01:00;;;;;;;6.20;5.40;;;;;;;25.52;71.28;99363.71;273920;1257;22399;-76
2023/07/10 08:07:01;;;;;;;5.30;4.60;;;;;;;25.64;70.74;99361.25;273317;1266;22377;-75
2023/07/10 08:13:04;;;;;;;5.50;4.50;;;;;;;25.74;69.98;99357.26;273288;1266;22512;-77
2023/07/10 08:19:05;;;;;;;5.90;4.60;;;;;;;25.88;67.81;99356.56;273272;1266;22200;-76
2023/07/10 08:25:06;;;;;;;4.00;3.60;;;;;;;26.02;66.39;99357.72;272926;1266;22401;-77
2023/07/10 08:31:07;;;;;;;6.40;3.70;;;;;;;26.16;64.81;99352.48;273337;1254;22352;-77
2023/07/10 08:37:08;;;;;;;6.10;3.40;;;;;;;26.27;63.23;99348.47;273179;1255;22549;-77
2023/07/10 08:43:41;;;;;;;4.40;3.20;;;;;;;26.44;61.75;99342.92;271045;1266;22544;-78
2023/07/10 08:50:38;;;;;;;5.70;3.20;;;;;;;26.57;60.02;99343.63;272508;1257;23421;-77
2023/07/10 08:57:35;;;;;;;3.70;2.90;;;;;;;26.60;58.23;99346.65;273371;1258;22232;-77
2023/07/10 09:03:38;;;;;;;4.30;2.90;;;;;;;26.66;57.20;99341.89;273448;1266;22249;-78
2023/07/10 09:09:47;;;;;;;8.20;3.10;;;;;;;26.58;56.59;99337.14;273250;1266;23251;-79
2023/07/10 09:15:50;;;;;;;4.50;2.80;;;;;;;26.76;55.34;99326.05;273376;1266;22397;-78
2023/07/10 09:21:52;;;;;;;5.50;3.20;;;;;;;27.05;54.09;99323.86;273320;1266;22770;-78
2023/07/10 09:27:55;;;;;;;4.60;3.20;;;;;;;27.24;52.87;99335.88;273429;1263;22185;-78
2023/07/10 09:34:11;;;;;;;3.90;2.80;;;;;;;27.46;52.52;99337.83;273454;1257;22433;-79
2023/07/10 09:40:56;;;;;;;4.30;3.00;;;;;;;27.93;51.57;99329.48;273199;1266;22383;-79
2023/07/10 09:47:19;;;;;;;5.30;3.20;;;;;;;28.52;50.78;99320.28;273081;1257;23851;-79
2023/07/10 09:53:29;;;;;;;8.00;3.70;;;;;;;28.96;50.48;99317.83;273112;1257;22465;-78
2023/07/10 09:59:34;;;;;;;4.00;3.00;;;;;;;29.11;49.22;99315.63;272792;1257;22408;-81
2023/07/10 10:05:39;;;;;;;5.10;2.90;;;;;;;29.42;45.71;99305.73;273238;1256;22274;-80
2023/07/10 10:11:46;;;;;;;4.40;3.50;;;;;;;29.48;44.68;99298.73;273283;1261;23879;-80
2023/07/10 10:17:49;;;;;;;5.20;2.90;;;;;;;29.89;44.70;99294.25;272382;1266;22356;-78
2023/07/10 10:24:16;;;;;;;3.00;2.70;;;;;;;30.23;44.05;99300.80;272842;1266;22327;-79
2023/07/10 10:30:29;;;;;;;6.40;2.90;;;;;;;30.37;43.44;99296.80;273212;1256;22491;-78
2023/07/10 10:36:45;;;;;;;4.00;2.70;;;;;;;30.55;42.11;99299.82;273358;1266;22441;-79
2023/07/10 10:42:51;;;;;;;5.90;2.40;;;;;;;30.50;40.71;99297.42;273084;1266;22465;-77
2023/07/10 10:49:15;;;;;;;7.00;2.60;;;;;;;30.69;40.39;99289.91;273358;1266;22373;-79
2023/07/10 10:55:29;;;;;;;4.20;2.70;;;;;;;30.79;39.65;99298.52;273227;1257;22382;-79
2023/07/10 11:01:44;;;;;;;;;;;;;;;;;;;;;
2023/07/10 11:07:57;;;;;;;3.40;2.40;;;;;;;29.93;39.10;99281.52;273489;1257;22255;-78
2023/07/10 11:14:14;;;;;;;6.90;3.30;;;;;;;29.92;38.99;99276.38;273308;1258;22300;-78
2023/07/10 11:20:38;;;;;;;2.60;2.40;;;;;;;29.93;39.32;99271.36;273858;1266;22329;-80
2023/07/10 11:27:37;;;;;;;2.90;2.40;;;;;;;30.02;39.66;99268.77;273643;1263;22217;-82
2023/07/10 11:33:44;;;;;;;5.90;3.60;;;;;;;30.29;38.67;99261.52;269424;1266;24225;-78
2023/07/10 11:40:44;;;;;;;4.20;2.50;;;;;;;30.22;39.32;99256.90;270665;1264;22291;-76
2023/07/10 11:47:33;;;;;;;6.60;2.70;;;;;;;29.78;39.19;99257.55;273706;1266;22229;-78
2023/07/10 11:53:34;;;;;;;4.50;2.70;;;;;;;29.36;38.51;99253.41;273589;1266;22435;-79
2023/07/10 11:59:56;;;;;;;3.50;2.50;;;;;;;29.17;38.70;99250.52;271026;1257;22908;-78
2023/07/10 12:05:57;;;;;;;6.50;3.10;;;;;;;28.99;39.88;99238.70;273854;1266;22419;-78
2023/07/10 12:11:59;;;;;;;5.10;3.10;;;;;;;28.90;39.47;99225.37;269947;1266;22562;-82
2023/07/10 12:18:00;;;;;;;4.30;3.00;;;;;;;28.85;40.26;99222.48;269330;1261;22540;-77
2023/07/10 12:24:05;;;;;;;5.50;3.00;;;;;;;28.70;40.07;99224.65;270711;1266;23276;-79
2023/07/10 12:30:14;;;;;;;4.20;3.20;;;;;;;28.54;39.96;99218.34;272015;1266;22458;-78
2023/07/10 12:36:27;;;;;;;5.30;3.10;;;;;;;28.36;39.96;99207.31;273635;1266;22378;-79
2023/07/10 12:42:36;;;;;;;5.10;3.20;;;;;;;28.21;39.88;99201.49;273383;1255;22188;-78
2023/07/10 12:48:37;;;;;;;6.60;3.30;;;;;;;28.18;40.46;99193.00;273214;1260;22538;-78
2023/07/10 12:54:41;;;;;;;5.00;3.40;;;;;;;27.97;41.26;99186.42;271977;1263;22686;-79
2023/07/10 13:01:05;;;;;;;5.10;3.00;;;;;;;27.82;41.50;99181.96;272458;1256;24178;-78
2023/07/10 13:07:58;;;;;;;5.00;3.30;;;;;;;27.63;42.05;99173.77;273345;1260;22406;-79
2023/07/10 13:14:56;;;;;;;;;;;;;;;;;;;;;
2023/07/10 13:21:21;;;;;;;8.30;4.10;;;;;;;27.35;42.38;99155.46;273615;1263;22135;-78
2023/07/10 13:27:24;;;;;;;4.40;3.00;;;;;;;27.26;42.43;99152.00;273885;1264;22276;-76
2023/07/10 13:33:44;;;;;;;6.70;3.80;;;;;;;27.26;42.56;99144.20;273094;1264;22387;-77
2023/07/10 13:39:48;;;;;;;6.00;4.00;;;;;;;27.28;43.67;99150.59;270880;1266;22570;-77
2023/07/10 13:45:59;;;;;;;5.90;3.70;;;;;;;27.20;44.49;99144.19;270042;1254;25347;-77
2023/07/10 13:52:00;;;;;;;6.00;3.70;;;;;;;27.10;44.62;99132.85;269018;1264;22532;-78
2023/07/10 13:58:02;;;;;;;4.80;3.80;;;;;;;27.02;44.55;99130.24;269885;1266;22535;-76
2023/07/10 14:04:03;;;;;;;5.20;4.00;;;;;;;26.91;44.90;99124.89;268912;1253;24213;-78
2023/07/10 14:10:05;;;;;;;6.30;3.90;;;;;;;26.91;45.68;99114.56;273358;1261;23483;-76
2023/07/10 14:16:23;;;;;;;7.30;4.10;;;;;;;27.11;45.84;99096.63;273200;1265;24176;-77
2023/07/10 14:22:24;;;;;;;7.30;4.50;;;;;;;27.33;45.20;99092.29;269249;1266;22555;-78
2023/07/10 14:28:26;;;;;;;7.10;3.90;;;;;;;27.38;44.71;99087.25;268935;1266;22542;-77
2023/07/10 14:35:12;;;;;;;;;;;;;;;;;;;;;
2023/07/10 14:41:40;;;;;;;9.10;4.10;;;;;;;27.32;44.48;99093.72;270702;1266;22405;-77
2023/07/10 14:47:43;;;;;;;7.60;4.30;;;;;;;27.14;44.68;99095.78;270408;1262;22422;-81
2023/07/10 14:53:44;;;;;;;8.00;4.30;;;;;;;26.93;44.61;99098.12;273185;1266;23064;-79
2023/07/10 14:59:47;;;;;;;5.40;4.50;;;;;;;26.73;44.50;99101.70;273362;1266;22219;-78
2023/07/10 15:05:51;;;;;;;7.40;4.20;;;;;;;26.59;45.06;99102.77;273984;1266;23640;-78
2023/07/10 15:11:52;;;;;;;8.00;4.00;;;;;;;26.45;45.22;99107.27;273785;1254;121854;-78
2023/07/10 15:17:53;;;;;;;6.40;4.50;;;;;;;26.38;45.52;99106.66;274008;1253;22369;-78
2023/07/10 15:24:40;;;;;;;4.70;4.10;;;;;;;26.33;45.95;99117.17;274105;1263;22319;-78
2023/07/10 15:31:04;;;;;;;;;;;;;;;;;;;;;
2023/07/10 15:37:33;;;;;;;7.10;4.20;;;;;;;26.13;46.58;99120.91;273923;1257;21954;-78
2023/07/10 15:43:51;;;;;;;5.80;4.10;;;;;;;25.97;47.66;99116.88;273996;1266;22332;-77
2023/07/10 15:49:52;;;;;;;7.40;4.30;;;;;;;25.97;46.99;99115.19;273981;1266;24143;-78
2023/07/10 15:55:59;;;;;;;7.80;4.40;;;;;;;26.05;47.21;99106.16;273887;1266;22252;-78
2023/07/10 16:02:26;;;;;;;7.30;4.30;;;;;;;26.08;47.74;99098.73;274137;1266;22218;-78
2023/07/10 16:08:30;;;;;;;5.90;4.50;;;;;;;26.10;47.85;99095.25;274006;1266;22614;-77
2023/07/10 16:14:34;;;;;;;8.60;4.90;;;;;;;26.13;48.32;99104.68;274116;1266;22387;-78
2023/07/10 16:20:42;;;;;;;8.60;4.90;;;;;;;26.09;48.89;99109.55;273922;1256;22408;-82
2023/07/10 16:26:44;;;;;;;6.50;4.50;;;;;;;25.99;48.97;99119.42;273604;1266;22184;-78
2023/07/10 16:32:46;;;;;;;6.30;4.00;;;;;;;25.87;48.95;99138.11;273839;1266;22417;-78
2023/07/10 16:38:47;;;;;;;6.60;4.90;;;;;;;25.72;49.44;99160.77;273747;1266;22320;-79
2023/07/10 16:44:49;;;;;;;8.40;5.20;;;;;;;25.53;50.09;99169.94;273773;1266;22338;-80
2023/07/10 16:50:53;;;;;;;9.20;5.50;;;;;;;25.41;50.71;99168.50;273897;1266;22590;-79
2023/07/10 16:56:54;;;;;;;11.00;5.40;;;;;;;25.29;51.51;99157.05;273923;1257;22240;-78
2023/07/10 17:03:02;;;;;;;9.90;5.10;;;;;;;25.11;51.88;99150.95;273753;1266;22263;-78
2023/07/10 17:09:04;;;;;;;8.90;5.80;;;;;;;24.92;52.78;99135.52;273798;1266;22289;-77
2023/07/10 17:15:07;;;;;;;7.50;5.20;;;;;;;24.70;53.57;99126.92;266060;1253;10002055;-78
2023/07/10 17:21:13;;;;;;;6.90;5.50;;;;;;;24.49;54.19;99115.62;273737;1266;22361;-78
2023/07/10 17:27:18;;;;;;;10.80;5.90;;;;;;;24.29;54.76;99109.70;273849;1266;23200;-78
2023/07/10 17:33:28;;;;;;;9.20;5.70;;;;;;;24.16;55.63;99100.81;273703;1266;23333;-78
2023/07/10 17:39:29;;;;;;;7.10;5.50;;;;;;;24.07;56.16;99088.42;273785;1266;22212;-79
2023/07/10 17:45:30;;;;;;;13.20;5.90;;;;;;;23.87;56.92;99072.14;273838;1266;22970;-78
2023/07/10 17:51:32;;;;;;;11.70;6.70;;;;;;;23.76;57.45;99064.03;273830;1266;22515;-79
2023/07/10 17:57:34;;;;;;;10.50;6.10;;;;;;;23.72;57.72;99058.86;273654;1266;23073;-79
2023/07/10 18:03:34;;;;;;;12.30;6.40;;;;;;;23.71;57.96;99061.48;273885;1265;22359;-79
2023/07/10 18:09:35;;;;;;;9.60;6.00;;;;;;;23.64;58.78;99073.81;273959;1251;22220;-78
